createdAt,value
2022-11-17T00:00:43.486Z,12.60
2022-11-17T00:03:19.214Z,12.60
2022-11-17T00:05:46.098Z,12.60
2022-11-17T00:08:13.343Z,12.60
2022-11-17T00:10:40.228Z,12.60
2022-11-17T00:13:27.322Z,12.60
2022-11-17T00:15:54.246Z,12.60
2022-11-17T00:18:39.605Z,12.60
2022-11-17T00:21:23.346Z,12.60
2022-11-17T00:23:50.851Z,12.60
2022-11-17T00:26:21.941Z,12.70
2022-11-17T00:29:00.386Z,13.20
2022-11-17T00:31:48.674Z,12.70
2022-11-17T00:34:23.447Z,12.70
2022-11-17T00:36:53.457Z,12.60
2022-11-17T00:39:23.029Z,13.20
2022-11-17T00:41:50.292Z,13.00
2022-11-17T00:44:17.735Z,12.70
2022-11-17T00:46:44.972Z,13.90
2022-11-17T00:49:12.832Z,12.70
2022-11-17T00:51:39.710Z,12.70
2022-11-17T00:54:10.389Z,12.70
2022-11-17T00:56:37.363Z,12.70
2022-11-17T00:59:04.306Z,12.70
2022-11-17T01:01:32.013Z,13.70
2022-11-17T01:04:03.781Z,12.70
2022-11-17T01:06:43.528Z,12.00
2022-11-17T01:09:19.685Z,12.80
2022-11-17T01:11:48.780Z,12.80
2022-11-17T01:14:20.424Z,12.80
2022-11-17T01:16:47.353Z,12.80
2022-11-17T01:19:16.683Z,12.80
2022-11-17T01:21:45.211Z,12.80
2022-11-17T01:24:15.309Z,12.80
2022-11-17T01:26:44.769Z,12.80
2022-11-17T01:29:14.783Z,12.90
2022-11-17T01:31:43.575Z,12.90
2022-11-17T01:34:12.013Z,12.90
2022-11-17T01:37:00.802Z,14.00
2022-11-17T01:39:30.167Z,13.00
2022-11-17T01:41:58.476Z,13.00
2022-11-17T01:45:04.688Z,13.00
2022-11-17T01:48:06.291Z,13.00
2022-11-17T01:50:39.183Z,13.00
2022-11-17T01:53:12.428Z,13.00
2022-11-17T01:55:45.892Z,13.00
2022-11-17T01:58:21.111Z,13.10
2022-11-17T02:00:49.063Z,14.70
2022-11-17T02:03:17.060Z,13.00
2022-11-17T02:06:08.510Z,13.10
2022-11-17T02:08:40.024Z,13.00
2022-11-17T02:11:17.109Z,13.10
2022-11-17T02:13:45.526Z,13.10
2022-11-17T02:16:15.549Z,13.10
2022-11-17T02:18:45.453Z,13.10
2022-11-17T02:21:50.800Z,13.10
2022-11-17T02:24:59.219Z,13.20
2022-11-17T02:27:28.888Z,13.20
2022-11-17T02:30:12.215Z,13.30
2022-11-17T02:32:46.196Z,14.10
2022-11-17T02:35:50.012Z,13.30
2022-11-17T02:38:38.765Z,13.30
2022-11-17T02:41:17.947Z,13.30
2022-11-17T02:44:08.767Z,14.50
2022-11-17T02:46:53.612Z,13.20
2022-11-17T02:49:31.354Z,13.20
2022-11-17T02:52:00.276Z,13.20
2022-11-17T02:54:31.182Z,13.20
2022-11-17T02:56:58.485Z,13.10
2022-11-17T02:59:35.337Z,13.10
2022-11-17T03:02:33.004Z,13.10
2022-11-17T03:05:29.902Z,13.10
2022-11-17T03:08:21.707Z,13.10
2022-11-17T03:11:05.380Z,13.10
2022-11-17T03:14:20.369Z,13.00
2022-11-17T03:17:05.605Z,13.00
2022-11-17T03:19:47.836Z,14.30
2022-11-17T03:22:25.370Z,12.90
2022-11-17T03:25:09.516Z,12.90
2022-11-17T03:27:45.102Z,13.10
2022-11-17T03:30:13.789Z,12.80
2022-11-17T03:32:49.774Z,12.70
2022-11-17T03:35:22.820Z,13.70
2022-11-17T03:37:55.985Z,12.60
2022-11-17T03:40:30.627Z,13.10
2022-11-17T03:43:02.565Z,12.60
2022-11-17T03:45:39.704Z,12.60
2022-11-17T03:48:25.560Z,12.50
2022-11-17T03:51:04.475Z,12.50
2022-11-17T03:53:33.326Z,12.50
2022-11-17T03:56:27.106Z,14.80
2022-11-17T03:59:14.033Z,12.60
2022-11-17T04:01:42.593Z,12.60
2022-11-17T04:04:19.018Z,12.70
2022-11-17T04:06:47.446Z,12.70
2022-11-17T04:09:15.245Z,13.50
2022-11-17T04:12:02.933Z,12.80
2022-11-17T04:14:48.072Z,12.90
2022-11-17T04:17:15.274Z,12.90
2022-11-17T04:19:43.234Z,13.00
2022-11-17T04:22:10.285Z,14.60
2022-11-17T04:24:37.236Z,13.00
2022-11-17T04:27:22.740Z,13.10
2022-11-17T04:29:49.649Z,13.10
2022-11-17T04:32:16.554Z,13.10
2022-11-17T04:34:43.423Z,13.10
2022-11-17T04:37:17.199Z,13.10
2022-11-17T04:39:45.672Z,14.20
2022-11-17T04:42:12.778Z,13.90
2022-11-17T04:44:39.676Z,13.10
2022-11-17T04:47:06.958Z,13.10
2022-11-17T04:49:34.046Z,14.40
2022-11-17T04:52:01.481Z,13.10
2022-11-17T04:54:28.852Z,13.10
2022-11-17T04:56:56.649Z,13.10
2022-11-17T04:59:23.975Z,13.10
2022-11-17T05:01:50.997Z,13.10
2022-11-17T05:04:39.149Z,13.10
2022-11-17T05:07:07.538Z,13.10
2022-11-17T05:09:34.575Z,14.60
2022-11-17T05:12:20.401Z,13.80
2022-11-17T05:14:49.085Z,13.20
2022-11-17T05:17:16.884Z,14.40
2022-11-17T05:19:48.782Z,13.20
2022-11-17T05:22:42.293Z,15.10
2022-11-17T05:25:09.915Z,13.10
2022-11-17T05:27:37.838Z,13.20
2022-11-17T05:30:08.067Z,13.30
2022-11-17T05:32:35.546Z,13.20
2022-11-17T05:35:02.429Z,13.20
2022-11-17T05:37:29.347Z,13.20
2022-11-17T05:39:56.165Z,13.20
2022-11-17T05:42:22.993Z,13.20
2022-11-17T05:44:49.893Z,13.10
2022-11-17T05:47:16.816Z,13.20
2022-11-17T05:49:43.884Z,13.20
2022-11-17T05:52:10.753Z,13.20
2022-11-17T05:54:37.527Z,13.20
2022-11-17T05:57:15.091Z,13.20
2022-11-17T05:59:46.527Z,13.20
2022-11-17T06:02:21.393Z,13.20
2022-11-17T06:04:50.244Z,13.20
2022-11-17T06:07:18.384Z,13.20
2022-11-17T06:09:46.508Z,13.20
2022-11-17T06:12:15.112Z,13.20
2022-11-17T06:14:42.480Z,13.20
2022-11-17T06:17:26.647Z,13.20
2022-11-17T06:20:13.714Z,13.10
2022-11-17T06:22:45.428Z,13.20
2022-11-17T06:25:16.460Z,13.20
2022-11-17T06:27:43.494Z,13.10
2022-11-17T06:30:11.270Z,13.10
2022-11-17T06:32:43.771Z,13.10
2022-11-17T06:35:13.888Z,13.10
2022-11-17T06:37:40.785Z,13.10
2022-11-17T06:40:09.917Z,14.80
2022-11-17T06:42:58.177Z,13.00
2022-11-17T06:45:25.188Z,13.00
2022-11-17T06:47:55.358Z,13.00
2022-11-17T06:50:22.250Z,12.90
2022-11-17T06:52:49.193Z,15.00
2022-11-17T06:55:16.359Z,12.90
2022-11-17T06:57:43.481Z,12.90
2022-11-17T07:00:12.407Z,12.80
2022-11-17T07:02:39.271Z,12.80
2022-11-17T07:05:06.451Z,12.80
2022-11-17T07:07:33.501Z,12.70
2022-11-17T07:10:00.489Z,12.70
2022-11-17T07:12:27.291Z,12.70
2022-11-17T07:14:54.230Z,12.60
2022-11-17T07:17:21.081Z,12.70
2022-11-17T07:19:48.004Z,12.60
2022-11-17T07:22:14.921Z,12.60
2022-11-17T07:24:41.936Z,12.60
2022-11-17T07:27:08.820Z,12.60
2022-11-17T07:29:35.691Z,12.60
2022-11-17T07:32:02.544Z,12.50
2022-11-17T07:34:29.510Z,12.50
2022-11-17T07:36:56.510Z,12.50
2022-11-17T07:39:23.395Z,12.50
2022-11-17T07:41:50.272Z,12.50
2022-11-17T07:44:17.269Z,12.50
2022-11-17T07:46:44.069Z,12.50
2022-11-17T07:49:11.202Z,13.20
2022-11-17T07:51:38.118Z,12.50
2022-11-17T07:54:05.169Z,12.50
2022-11-17T07:56:32.005Z,12.50
2022-11-17T07:58:58.886Z,12.50
2022-11-17T08:01:27.607Z,12.50
2022-11-17T08:03:54.859Z,14.70
2022-11-17T08:06:23.931Z,12.50
2022-11-17T08:08:51.509Z,12.50
2022-11-17T08:11:19.322Z,12.50
2022-11-17T08:13:47.110Z,12.50
2022-11-17T08:16:14.380Z,12.50
2022-11-17T08:18:41.446Z,12.60
2022-11-17T08:21:14.713Z,12.50
2022-11-17T08:23:42.434Z,13.00
2022-11-17T08:26:11.916Z,12.50
2022-11-17T08:28:39.580Z,12.60
2022-11-17T08:31:08.494Z,14.30
2022-11-17T08:33:35.995Z,13.50
2022-11-17T08:36:07.260Z,12.40
2022-11-17T08:38:35.534Z,12.40
2022-11-17T08:41:08.290Z,12.40
2022-11-17T08:43:35.686Z,12.40
2022-11-17T08:46:03.323Z,12.40
2022-11-17T08:48:31.605Z,12.30
2022-11-17T08:51:04.219Z,13.70
2022-11-17T08:53:31.124Z,12.30
2022-11-17T08:58:25.496Z,12.30
2022-11-17T09:00:52.582Z,14.40
2022-11-17T09:03:19.468Z,12.20
2022-11-17T09:05:47.209Z,12.30
2022-11-17T09:11:07.977Z,12.90
2022-11-17T09:13:35.809Z,12.30
2022-11-17T09:16:08.464Z,12.30
2022-11-17T09:18:38.101Z,12.40
2022-11-17T09:21:15.889Z,12.40
2022-11-17T09:23:43.490Z,12.40
2022-11-17T09:26:13.895Z,12.40
2022-11-17T09:28:41.431Z,12.40
2022-11-17T09:31:13.051Z,12.40
2022-11-17T09:33:40.305Z,12.50
2022-11-17T09:36:07.897Z,12.50
2022-11-17T09:38:36.675Z,12.50
2022-11-17T09:41:35.647Z,12.90
2022-11-17T09:44:17.099Z,12.70
2022-11-17T09:47:01.663Z,12.80
2022-11-17T09:49:58.374Z,12.80
2022-11-17T09:52:59.021Z,12.90
2022-11-17T09:55:40.819Z,13.00
2022-11-17T09:58:19.475Z,13.40
2022-11-17T10:00:48.891Z,13.10
2022-11-17T10:03:26.711Z,13.20
2022-11-17T10:05:54.597Z,13.20
2022-11-17T10:08:43.478Z,13.20
2022-11-17T10:11:32.770Z,14.70
2022-11-17T10:14:08.383Z,13.40
2022-11-17T10:16:38.236Z,13.50
2022-11-17T10:19:27.106Z,13.60
2022-11-17T10:22:03.538Z,13.70
2022-11-17T10:24:42.349Z,13.70
2022-11-17T10:27:20.427Z,13.80
2022-11-17T10:30:02.798Z,16.00
2022-11-17T10:32:48.192Z,14.10
2022-11-17T10:35:22.457Z,14.20
2022-11-17T10:38:13.341Z,13.60
2022-11-17T10:40:40.200Z,14.40
2022-11-17T10:43:12.882Z,14.50
2022-11-17T10:45:52.453Z,14.60
2022-11-17T10:48:27.899Z,14.60
2022-11-17T10:51:01.228Z,14.60
2022-11-17T10:53:42.822Z,14.60
2022-11-17T10:56:19.913Z,14.60
2022-11-17T10:59:09.607Z,14.60
2022-11-17T11:01:43.695Z,14.60
2022-11-17T11:04:34.861Z,14.50
2022-11-17T11:07:21.585Z,14.50
2022-11-17T11:10:06.516Z,16.40
2022-11-17T11:13:01.307Z,14.50
2022-11-17T11:15:35.907Z,14.30
2022-11-17T11:18:16.535Z,14.30
2022-11-17T11:21:07.652Z,14.20
2022-11-17T11:23:56.800Z,14.20
2022-11-17T11:27:09.649Z,14.10
2022-11-17T11:29:58.366Z,14.10
2022-11-17T11:32:58.371Z,14.10
2022-11-17T11:35:36.426Z,14.10
2022-11-17T11:38:28.699Z,14.10
2022-11-17T11:41:17.559Z,14.00
2022-11-17T11:44:18.049Z,14.00
2022-11-17T11:47:40.433Z,13.90
2022-11-17T11:50:19.920Z,14.00
2022-11-17T11:52:58.979Z,14.00
2022-11-17T11:55:32.252Z,14.00
2022-11-17T11:58:12.069Z,14.00
2022-11-17T12:00:42.804Z,14.00
2022-11-17T12:03:44.933Z,14.00
2022-11-17T12:06:53.618Z,14.10
2022-11-17T12:09:44.618Z,14.10
2022-11-17T12:12:20.042Z,14.20
2022-11-17T12:15:08.549Z,14.20
2022-11-17T12:17:36.633Z,14.20
2022-11-17T12:20:31.794Z,14.30
2022-11-17T12:23:26.400Z,14.20
2022-11-17T12:25:59.186Z,14.30
2022-11-17T12:28:41.316Z,14.30
2022-11-17T12:31:42.080Z,14.40
2022-11-17T12:34:17.288Z,14.40
2022-11-17T12:37:16.753Z,14.50
2022-11-17T12:39:56.960Z,14.50
2022-11-17T12:42:24.128Z,14.60
2022-11-17T12:45:04.607Z,14.60
2022-11-17T12:47:44.399Z,14.60
2022-11-17T12:50:17.998Z,14.70
2022-11-17T12:52:50.971Z,14.60
2022-11-17T12:55:32.886Z,14.70
2022-11-17T12:58:10.690Z,14.70
2022-11-17T13:01:03.682Z,14.60
2022-11-17T13:03:59.356Z,14.60
2022-11-17T13:06:35.875Z,14.60
2022-11-17T13:09:11.579Z,16.50
2022-11-17T13:11:38.748Z,14.60
2022-11-17T13:14:15.191Z,14.60
2022-11-17T13:16:52.439Z,14.60
2022-11-17T13:19:41.727Z,16.90
2022-11-17T13:22:11.473Z,14.60
2022-11-17T13:24:41.007Z,14.60
2022-11-17T13:27:31.679Z,15.90
2022-11-17T13:30:30.767Z,14.70
2022-11-17T13:33:02.641Z,14.70
2022-11-17T13:35:33.537Z,14.80
2022-11-17T13:38:24.139Z,14.80
2022-11-17T13:40:53.670Z,14.80
2022-11-17T13:43:23.689Z,14.90
2022-11-17T13:45:54.411Z,14.90
2022-11-17T13:48:42.215Z,15.00
2022-11-17T13:51:24.169Z,15.00
2022-11-17T13:54:17.813Z,15.00
2022-11-17T13:56:47.628Z,15.00
2022-11-17T13:59:37.074Z,15.10
2022-11-17T14:02:21.665Z,15.00
2022-11-17T14:05:18.311Z,15.00
2022-11-17T14:07:46.773Z,15.00
2022-11-17T14:10:22.472Z,15.00
2022-11-17T14:13:02.441Z,15.00
2022-11-17T14:15:34.780Z,14.90
2022-11-17T14:18:19.413Z,14.90
2022-11-17T14:20:46.291Z,14.90
2022-11-17T14:23:13.550Z,15.00
2022-11-17T14:25:51.326Z,14.90
2022-11-17T14:28:22.863Z,14.90
2022-11-17T14:30:53.012Z,14.90
2022-11-17T14:33:20.333Z,14.90
2022-11-17T14:35:53.577Z,14.80
2022-11-17T14:38:21.932Z,14.90
2022-11-17T14:40:51.636Z,14.80
2022-11-17T14:43:20.932Z,16.30
2022-11-17T14:45:51.815Z,16.00
2022-11-17T14:48:20.920Z,14.70
2022-11-17T14:50:48.454Z,14.80
2022-11-17T14:53:15.477Z,14.60
2022-11-17T14:55:42.490Z,14.60
2022-11-17T14:58:11.584Z,14.50
2022-11-17T15:00:38.383Z,16.00
2022-11-17T15:03:05.349Z,14.40
2022-11-17T15:05:32.311Z,14.40
2022-11-17T15:07:59.302Z,14.40
2022-11-17T15:10:26.248Z,14.40
2022-11-17T15:12:53.037Z,14.30
2022-11-17T15:15:20.009Z,16.30
2022-11-17T15:17:46.879Z,14.30
2022-11-17T15:20:13.875Z,14.30
2022-11-17T15:22:40.854Z,14.30
2022-11-17T15:25:08.503Z,14.30
2022-11-17T15:27:35.295Z,14.20
2022-11-17T15:30:02.375Z,14.20
2022-11-17T15:32:29.733Z,14.20
2022-11-17T15:34:56.630Z,14.10
2022-11-17T15:37:23.546Z,14.10
2022-11-17T15:39:51.227Z,14.00
2022-11-17T15:42:18.069Z,14.00
2022-11-17T15:44:44.945Z,14.00
2022-11-17T15:47:11.758Z,13.90
2022-11-17T15:49:38.573Z,13.90
2022-11-17T15:52:05.409Z,13.80
2022-11-17T15:54:32.867Z,13.80
2022-11-17T15:57:01.412Z,14.00
2022-11-17T15:59:29.197Z,13.70
2022-11-17T16:01:56.049Z,13.70
2022-11-17T16:04:22.949Z,13.60
2022-11-17T16:06:49.942Z,13.50
2022-11-17T16:09:17.323Z,13.50
2022-11-17T16:11:44.708Z,13.40
2022-11-17T16:14:11.903Z,13.40
2022-11-17T16:16:39.661Z,13.90
2022-11-17T16:19:07.028Z,13.30
2022-11-17T16:21:34.306Z,13.20
2022-11-17T16:24:02.105Z,13.20
2022-11-17T16:26:30.090Z,13.10
2022-11-17T16:28:59.397Z,13.00
2022-11-17T16:31:30.806Z,14.30
2022-11-17T16:34:12.834Z,12.90
2022-11-17T16:36:43.212Z,12.90
2022-11-17T16:39:14.731Z,12.80
2022-11-17T16:41:50.059Z,12.80
2022-11-17T16:44:18.539Z,12.70
2022-11-17T16:46:48.394Z,12.70
2022-11-17T16:49:18.276Z,12.60
2022-11-17T16:51:53.770Z,12.60
2022-11-17T16:54:21.163Z,12.50
2022-11-17T16:56:48.500Z,12.40
2022-11-17T16:59:15.792Z,12.40
2022-11-17T17:01:43.106Z,13.10
2022-11-17T17:04:10.915Z,12.20
2022-11-17T17:06:41.981Z,12.20
2022-11-17T17:09:11.264Z,12.10
2022-11-17T17:11:39.125Z,14.30
2022-11-17T17:14:11.486Z,14.30
2022-11-17T17:16:39.183Z,11.90
2022-11-17T17:19:09.476Z,11.90
2022-11-17T17:21:38.498Z,11.80
2022-11-17T17:24:06.278Z,11.80
2022-11-17T17:26:35.006Z,11.70
2022-11-17T17:29:04.180Z,11.60
2022-11-17T17:31:38.144Z,11.60
2022-11-17T17:34:06.475Z,11.50
2022-11-17T17:36:34.871Z,11.50
2022-11-17T17:39:02.881Z,11.40
2022-11-17T17:41:33.291Z,11.40
2022-11-17T17:44:04.002Z,11.40
2022-11-17T17:46:35.330Z,11.40
2022-11-17T17:49:02.361Z,11.30
2022-11-17T17:51:30.329Z,11.30
2022-11-17T17:54:00.981Z,13.30
2022-11-17T17:56:30.304Z,11.30
2022-11-17T17:58:58.106Z,11.60
2022-11-17T18:01:28.448Z,11.20
2022-11-17T18:04:04.238Z,11.20
2022-11-17T18:06:37.415Z,11.20
2022-11-17T18:09:06.450Z,11.10
2022-11-17T18:11:33.906Z,11.10
2022-11-17T18:14:01.056Z,11.10
2022-11-17T18:16:33.598Z,11.10
2022-11-17T18:19:07.123Z,11.00
2022-11-17T18:21:34.889Z,11.00
2022-11-17T18:24:03.245Z,13.20
2022-11-17T18:26:33.971Z,11.00
2022-11-17T18:29:16.077Z,11.00
2022-11-17T18:31:46.498Z,11.00
2022-11-17T18:34:18.826Z,10.90
2022-11-17T18:36:45.739Z,10.90
2022-11-17T18:39:12.853Z,10.90
2022-11-17T18:41:39.782Z,10.90
2022-11-17T18:44:06.693Z,10.90
2022-11-17T18:46:34.215Z,11.70
2022-11-17T18:49:01.186Z,10.90
2022-11-17T18:51:31.633Z,11.20
2022-11-17T18:54:01.809Z,10.80
2022-11-17T18:56:34.646Z,10.80
2022-11-17T18:59:02.338Z,10.80
2022-11-17T19:01:30.710Z,10.70
2022-11-17T19:04:02.860Z,12.10
2022-11-17T19:06:30.883Z,10.70
2022-11-17T19:08:59.749Z,10.60
2022-11-17T19:11:30.109Z,10.60
2022-11-17T19:13:59.734Z,10.60
2022-11-17T19:16:26.680Z,10.50
2022-11-17T19:18:56.325Z,10.50
2022-11-17T19:21:29.880Z,10.50
2022-11-17T19:24:04.537Z,10.50
2022-11-17T19:26:34.597Z,10.50
2022-11-17T19:29:15.529Z,10.50
2022-11-17T19:31:44.818Z,11.40
2022-11-17T19:34:11.996Z,10.40
2022-11-17T19:36:39.406Z,10.40
2022-11-17T19:39:06.489Z,10.40
2022-11-17T19:41:36.617Z,10.40
2022-11-17T19:44:06.887Z,10.30
2022-11-17T19:46:36.246Z,10.30
2022-11-17T19:49:05.867Z,10.70
2022-11-17T19:51:36.796Z,10.30
2022-11-17T19:54:07.943Z,10.30
2022-11-17T19:56:35.716Z,10.30
2022-11-17T19:59:03.349Z,10.30
2022-11-17T20:01:33.116Z,10.20
2022-11-17T20:04:01.614Z,10.30
2022-11-17T20:06:36.863Z,10.20
2022-11-17T20:09:09.596Z,10.20
2022-11-17T20:11:37.221Z,10.20
2022-11-17T20:14:04.580Z,10.20
2022-11-17T20:16:32.010Z,10.20
2022-11-17T20:19:02.383Z,10.20
2022-11-17T20:21:31.090Z,10.10
2022-11-17T20:24:02.110Z,10.10
2022-11-17T20:26:32.459Z,10.10
2022-11-17T20:29:00.617Z,10.10
2022-11-17T20:31:33.558Z,10.10
2022-11-17T20:34:02.196Z,10.10
2022-11-17T20:36:31.315Z,10.10
2022-11-17T20:39:01.649Z,10.00
2022-11-17T20:41:29.471Z,10.00
2022-11-17T20:43:59.060Z,10.00
2022-11-17T20:46:26.679Z,12.30
2022-11-17T20:48:53.580Z,10.00
2022-11-17T20:51:23.330Z,10.00
2022-11-17T20:53:50.604Z,10.00
2022-11-17T20:56:18.274Z,10.00
2022-11-17T20:58:45.673Z,10.00
2022-11-17T21:01:16.112Z,9.90
2022-11-17T21:03:45.323Z,9.90
2022-11-17T21:06:13.740Z,11.50
2022-11-17T21:08:43.235Z,9.80
2022-11-17T21:11:36.079Z,9.90
2022-11-17T21:14:08.509Z,9.80
2022-11-17T21:16:38.835Z,9.80
2022-11-17T21:19:07.198Z,9.80
2022-11-17T21:21:34.777Z,11.90
2022-11-17T21:24:01.810Z,9.70
2022-11-17T21:26:28.930Z,9.70
2022-11-17T21:28:58.404Z,9.70
2022-11-17T21:31:31.238Z,9.60
2022-11-17T21:34:01.837Z,9.60
2022-11-17T21:36:31.165Z,9.60
2022-11-17T21:38:58.345Z,9.60
2022-11-17T21:41:31.961Z,9.50
2022-11-17T21:44:02.028Z,9.50
2022-11-17T21:46:33.311Z,9.50
2022-11-17T21:49:01.636Z,9.50
2022-11-17T21:51:33.963Z,9.40
2022-11-17T21:54:04.357Z,9.40
2022-11-17T21:56:31.985Z,9.40
2022-11-17T21:59:13.398Z,9.40
2022-11-17T22:01:40.663Z,9.30
2022-11-17T22:04:07.649Z,9.40
2022-11-17T22:06:35.063Z,9.30
2022-11-17T22:09:01.926Z,11.00
2022-11-17T22:11:37.606Z,11.60
2022-11-17T22:14:16.507Z,9.30
2022-11-17T22:16:52.810Z,9.30
2022-11-17T22:19:22.434Z,9.30
2022-11-17T22:21:52.594Z,9.30
2022-11-17T22:24:20.345Z,9.30
2022-11-17T22:26:47.755Z,9.30
2022-11-17T22:29:20.742Z,9.30
2022-11-17T22:31:49.230Z,9.20
2022-11-17T22:34:17.646Z,9.30
2022-11-17T22:36:44.649Z,9.30
2022-11-17T22:39:11.781Z,9.20
2022-11-17T22:41:38.780Z,9.20
2022-11-17T22:44:06.470Z,9.20
2022-11-17T22:46:35.420Z,9.20
2022-11-17T22:49:02.241Z,9.20
2022-11-17T22:51:47.539Z,9.20
2022-11-17T22:54:14.431Z,9.20
2022-11-17T22:56:41.268Z,9.20
2022-11-17T22:59:09.243Z,9.20
2022-11-17T23:01:36.127Z,9.50
2022-11-17T23:04:03.286Z,9.20
2022-11-17T23:06:30.189Z,9.10
2022-11-17T23:08:58.156Z,10.70
2022-11-17T23:11:41.917Z,9.10
2022-11-17T23:14:13.945Z,9.20
2022-11-17T23:16:42.256Z,9.10
2022-11-17T23:19:13.715Z,9.00
2022-11-17T23:21:41.555Z,9.00
2022-11-17T23:24:12.920Z,9.00
2022-11-17T23:26:41.044Z,9.00
2022-11-17T23:29:09.317Z,9.00
2022-11-17T23:31:36.281Z,9.00
2022-11-17T23:34:03.154Z,9.00
2022-11-17T23:36:30.252Z,9.00
2022-11-17T23:38:57.681Z,9.00
2022-11-17T23:41:24.735Z,9.00
2022-11-17T23:43:53.991Z,9.00
2022-11-17T23:46:24.744Z,9.00
2022-11-17T23:48:52.312Z,9.00
2022-11-17T23:51:23.413Z,8.90
2022-11-17T23:53:51.425Z,9.00
2022-11-17T23:56:20.605Z,8.90
2022-11-17T23:58:48.156Z,8.90
